createdAt,value
2022-08-27T00:00:10.065Z,57.63
2022-08-27T00:01:10.062Z,58.88
2022-08-27T00:02:10.075Z,61.01
2022-08-27T00:03:09.974Z,60.63
2022-08-27T00:04:09.995Z,59.59
2022-08-27T00:05:09.952Z,55.78
2022-08-27T00:06:10.040Z,59.63
2022-08-27T00:07:09.904Z,60.75
2022-08-27T00:08:10.051Z,58.96
2022-08-27T00:09:09.968Z,59.73
2022-08-27T00:10:09.907Z,58.69
2022-08-27T00:11:09.911Z,59.54
2022-08-27T00:12:09.826Z,62.75
2022-08-27T00:13:09.807Z,59.15
2022-08-27T00:14:09.883Z,57.33
2022-08-27T00:15:10.277Z,60.14
2022-08-27T00:16:09.868Z,58.79
2022-08-27T00:17:09.822Z,60.47
2022-08-27T00:18:09.813Z,58.43
2022-08-27T00:19:09.691Z,58.49
2022-08-27T00:20:09.686Z,57.89
2022-08-27T00:21:09.708Z,56.61
2022-08-27T00:22:09.649Z,59.11
2022-08-27T00:23:09.634Z,58.36
2022-08-27T00:24:09.613Z,57.68
2022-08-27T00:25:09.602Z,59.73
2022-08-27T00:26:09.610Z,62.24
2022-08-27T00:27:09.575Z,59.12
2022-08-27T00:28:09.655Z,61.98
2022-08-27T00:29:09.540Z,60.91
2022-08-27T00:30:09.508Z,56.86
2022-08-27T00:31:11.398Z,59.33
2022-08-27T00:32:09.566Z,61.03
2022-08-27T00:33:09.467Z,59.34
2022-08-27T00:34:41.854Z,56.31
2022-08-27T00:35:09.425Z,62.06
2022-08-27T00:36:09.436Z,58.82
2022-08-27T00:37:09.394Z,60.21
2022-08-27T00:38:09.560Z,59.45
2022-08-27T00:39:09.357Z,59.24
2022-08-27T00:40:09.414Z,58.57
2022-08-27T00:41:09.355Z,59.99
2022-08-27T00:42:09.313Z,60.71
2022-08-27T00:43:09.300Z,58.90
2022-08-27T00:44:09.282Z,58.45
2022-08-27T00:45:09.264Z,58.84
2022-08-27T00:46:09.323Z,58.29
2022-08-27T00:47:09.239Z,59.87
2022-08-27T00:48:09.327Z,57.65
2022-08-27T00:49:09.190Z,58.59
2022-08-27T00:50:09.168Z,60.62
2022-08-27T00:51:09.197Z,62.25
2022-08-27T00:52:09.150Z,60.10
2022-08-27T00:53:09.113Z,57.94
2022-08-27T00:54:09.111Z,58.38
2022-08-27T00:55:09.082Z,59.39
2022-08-27T00:56:09.125Z,58.40
2022-08-27T00:57:09.045Z,56.87
2022-08-27T00:58:09.246Z,58.95
2022-08-27T00:59:09.011Z,59.36
2022-08-27T01:00:08.991Z,58.29
2022-08-27T01:01:09.059Z,60.38
2022-08-27T01:02:09.003Z,62.16
2022-08-27T01:03:08.942Z,61.23
2022-08-27T01:04:08.939Z,61.04
2022-08-27T01:05:08.943Z,59.21
2022-08-27T01:06:08.924Z,57.79
2022-08-27T01:07:08.880Z,61.22
2022-08-27T01:08:09.098Z,55.90
2022-08-27T01:09:08.846Z,58.28
2022-08-27T01:10:08.830Z,59.54
2022-08-27T01:11:08.828Z,59.15
2022-08-27T01:12:08.801Z,60.08
2022-08-27T01:13:08.767Z,59.37
2022-08-27T01:14:08.759Z,60.60
2022-08-27T01:15:08.733Z,61.35
2022-08-27T01:16:08.768Z,61.35
2022-08-27T01:17:08.736Z,60.53
2022-08-27T01:18:08.781Z,63.47
2022-08-27T01:19:08.659Z,59.41
2022-08-27T01:20:08.658Z,61.69
2022-08-27T01:21:08.662Z,54.97
2022-08-27T01:22:08.618Z,60.35
2022-08-27T01:23:08.615Z,62.06
2022-08-27T01:24:08.588Z,60.51
2022-08-27T01:25:08.577Z,62.83
2022-08-27T01:26:08.549Z,61.97
2022-08-27T01:27:13.413Z,61.11
2022-08-27T01:28:09.683Z,61.21
2022-08-27T01:29:08.501Z,59.63
2022-08-27T01:30:08.480Z,57.90
2022-08-27T01:31:08.567Z,60.38
2022-08-27T01:32:08.494Z,58.79
2022-08-27T01:33:08.473Z,59.08
2022-08-27T01:34:09.415Z,59.22
2022-08-27T01:35:08.411Z,57.74
2022-08-27T01:36:08.374Z,54.95
2022-08-27T01:37:08.397Z,63.05
2022-08-27T01:38:09.488Z,61.64
2022-08-27T01:39:09.335Z,59.45
2022-08-27T01:40:08.363Z,58.20
2022-08-27T01:41:08.324Z,57.90
2022-08-27T01:42:08.281Z,59.33
2022-08-27T01:43:08.258Z,59.65
2022-08-27T01:44:08.241Z,57.08
2022-08-27T01:45:08.231Z,62.07
2022-08-27T01:46:08.215Z,59.94
2022-08-27T01:47:08.243Z,59.04
2022-08-27T01:48:08.173Z,58.75
2022-08-27T01:49:08.149Z,59.59
2022-08-27T01:50:08.142Z,58.54
2022-08-27T01:51:08.113Z,59.03
2022-08-27T01:52:08.137Z,60.35
2022-08-27T01:53:08.102Z,61.03
2022-08-27T01:54:08.066Z,60.02
2022-08-27T01:55:08.053Z,62.23
2022-08-27T01:56:08.038Z,60.50
2022-08-27T01:57:08.046Z,58.64
2022-08-27T01:58:08.000Z,57.84
2022-08-27T01:59:08.984Z,58.99
2022-08-27T02:00:07.967Z,58.29
2022-08-27T02:01:08.069Z,60.93
2022-08-27T02:02:08.027Z,57.86
2022-08-27T02:03:07.923Z,59.09
2022-08-27T02:04:07.890Z,60.76
2022-08-27T02:05:07.887Z,63.22
2022-08-27T02:06:07.855Z,58.21
2022-08-27T02:07:07.884Z,57.97
2022-08-27T02:08:07.883Z,61.20
2022-08-27T02:09:07.809Z,54.15
2022-08-27T02:10:07.788Z,59.38
2022-08-27T02:11:07.776Z,61.07
2022-08-27T02:12:07.783Z,61.03
2022-08-27T02:13:07.731Z,58.68
2022-08-27T02:14:07.710Z,56.78
2022-08-27T02:15:08.718Z,61.04
2022-08-27T02:16:07.720Z,63.10
2022-08-27T02:17:07.701Z,61.63
2022-08-27T02:18:07.734Z,62.16
2022-08-27T02:19:07.653Z,60.63
2022-08-27T02:20:07.633Z,58.53
2022-08-27T02:21:07.592Z,61.10
2022-08-27T02:22:08.617Z,61.71
2022-08-27T02:23:07.568Z,63.47
2022-08-27T02:24:07.556Z,60.13
2022-08-27T02:25:10.426Z,60.71
2022-08-27T02:26:07.515Z,60.27
2022-08-27T02:27:07.525Z,54.89
2022-08-27T02:28:07.520Z,59.99
2022-08-27T02:29:07.465Z,60.31
2022-08-27T02:30:07.439Z,59.63
2022-08-27T02:31:07.507Z,53.69
2022-08-27T02:32:07.445Z,60.12
2022-08-27T02:33:08.410Z,60.65
2022-08-27T02:34:07.369Z,61.72
2022-08-27T02:35:07.370Z,56.11
2022-08-27T02:36:07.327Z,60.73
2022-08-27T02:37:08.360Z,61.16
2022-08-27T02:38:07.356Z,59.29
2022-08-27T02:39:07.293Z,60.37
2022-08-27T02:40:07.334Z,61.50
2022-08-27T02:41:07.254Z,60.80
2022-08-27T02:42:07.266Z,60.94
2022-08-27T02:43:07.223Z,55.41
2022-08-27T02:44:10.290Z,63.12
2022-08-27T02:45:07.188Z,59.73
2022-08-27T02:46:07.197Z,60.73
2022-08-27T02:47:07.169Z,60.59
2022-08-27T02:48:07.125Z,57.64
2022-08-27T02:49:07.110Z,61.74
2022-08-27T02:50:07.092Z,59.24
2022-08-27T02:51:07.076Z,61.60
2022-08-27T02:52:07.079Z,61.39
2022-08-27T02:53:07.050Z,62.29
2022-08-27T02:54:09.431Z,59.54
2022-08-27T02:55:07.010Z,62.09
2022-08-27T02:56:06.986Z,60.37
2022-08-27T02:57:07.018Z,60.96
2022-08-27T02:58:06.998Z,60.72
2022-08-27T02:59:06.940Z,61.81
2022-08-27T03:00:06.937Z,61.82
2022-08-27T03:01:06.901Z,59.44
2022-08-27T03:02:07.988Z,56.85
2022-08-27T03:03:06.861Z,57.71
2022-08-27T03:04:06.859Z,62.51
2022-08-27T03:05:06.826Z,56.60
2022-08-27T03:06:06.815Z,58.56
2022-08-27T03:07:06.845Z,61.27
2022-08-27T03:08:06.874Z,56.46
2022-08-27T03:09:06.755Z,56.82
2022-08-27T03:10:06.747Z,60.05
2022-08-27T03:11:06.720Z,56.40
2022-08-27T03:12:06.755Z,59.35
2022-08-27T03:13:06.685Z,59.93
2022-08-27T03:14:06.675Z,62.58
2022-08-27T03:15:06.650Z,59.97
2022-08-27T03:16:06.687Z,60.35
2022-08-27T03:17:06.659Z,61.22
2022-08-27T03:18:06.608Z,61.67
2022-08-27T03:19:06.598Z,61.44
2022-08-27T03:20:06.572Z,58.88
2022-08-27T03:21:06.559Z,61.10
2022-08-27T03:22:06.575Z,63.46
2022-08-27T03:23:06.527Z,61.81
2022-08-27T03:24:09.248Z,61.59
2022-08-27T03:25:07.512Z,59.37
2022-08-27T03:26:06.490Z,62.23
2022-08-27T03:27:06.503Z,57.72
2022-08-27T03:28:06.577Z,60.34
2022-08-27T03:29:07.430Z,59.63
2022-08-27T03:30:06.402Z,61.67
2022-08-27T03:31:06.433Z,61.62
2022-08-27T03:32:06.406Z,60.48
2022-08-27T03:33:06.349Z,58.81
2022-08-27T03:34:06.342Z,61.72
2022-08-27T03:35:06.313Z,61.83
2022-08-27T03:36:06.319Z,61.58
2022-08-27T03:37:06.314Z,61.26
2022-08-27T03:38:06.341Z,61.65
2022-08-27T03:39:06.243Z,60.94
2022-08-27T03:40:06.272Z,61.25
2022-08-27T03:41:06.204Z,60.73
2022-08-27T03:42:06.204Z,60.71
2022-08-27T03:43:06.173Z,62.03
2022-08-27T03:44:06.200Z,59.64
2022-08-27T03:45:06.122Z,60.18
2022-08-27T03:46:06.186Z,61.89
2022-08-27T03:47:06.134Z,59.88
2022-08-27T03:48:06.103Z,63.46
2022-08-27T03:49:06.063Z,63.08
2022-08-27T03:50:06.069Z,63.11
2022-08-27T03:51:06.025Z,62.16
2022-08-27T03:52:06.054Z,62.88
2022-08-27T03:53:05.985Z,61.31
2022-08-27T03:54:05.982Z,63.10
2022-08-27T03:55:05.971Z,60.08
2022-08-27T03:56:05.938Z,61.72
2022-08-27T03:57:05.964Z,64.03
2022-08-27T03:58:05.918Z,63.59
2022-08-27T03:59:05.901Z,58.63
2022-08-27T04:00:05.868Z,63.22
2022-08-27T04:01:05.871Z,62.28
2022-08-27T04:02:05.923Z,62.31
2022-08-27T04:03:05.940Z,60.34
2022-08-27T04:04:05.810Z,63.72
2022-08-27T04:05:05.796Z,65.54
2022-08-27T04:06:05.767Z,57.81
2022-08-27T04:07:05.781Z,61.60
2022-08-27T04:08:05.735Z,63.39
2022-08-27T04:09:05.722Z,62.00
2022-08-27T04:10:05.696Z,61.30
2022-08-27T04:11:05.686Z,62.94
2022-08-27T04:12:05.691Z,64.65
2022-08-27T04:13:05.653Z,63.33
2022-08-27T04:14:17.407Z,63.55
2022-08-27T04:15:06.610Z,59.55
2022-08-27T04:16:05.709Z,61.74
2022-08-27T04:17:05.614Z,62.47
2022-08-27T04:18:05.553Z,61.85
2022-08-27T04:19:05.540Z,62.59
2022-08-27T04:20:31.795Z,62.05
2022-08-27T04:21:07.519Z,61.71
2022-08-27T04:22:05.525Z,62.57
2022-08-27T04:23:05.484Z,61.50
2022-08-27T04:24:05.476Z,63.50
2022-08-27T04:25:05.431Z,64.51
2022-08-27T04:26:06.439Z,60.78
2022-08-27T04:27:05.471Z,61.81
2022-08-27T04:28:05.393Z,61.85
2022-08-27T04:29:05.370Z,62.66
2022-08-27T04:30:05.351Z,62.52
2022-08-27T04:31:05.368Z,62.17
2022-08-27T04:32:05.368Z,62.41
2022-08-27T04:33:05.297Z,63.74
2022-08-27T04:34:05.282Z,62.46
2022-08-27T04:35:05.274Z,62.95
2022-08-27T04:36:05.241Z,65.30
2022-08-27T04:37:05.228Z,61.83
2022-08-27T04:38:05.258Z,62.01
2022-08-27T04:39:05.208Z,64.29
2022-08-27T04:40:05.199Z,65.18
2022-08-27T04:41:05.167Z,61.79
2022-08-27T04:42:05.130Z,63.06
2022-08-27T04:43:05.151Z,64.57
2022-08-27T04:44:05.104Z,61.99
2022-08-27T04:45:05.093Z,62.97
2022-08-27T04:46:05.104Z,61.89
2022-08-27T04:47:05.062Z,64.97
2022-08-27T04:48:05.075Z,61.72
2022-08-27T04:49:08.975Z,64.19
2022-08-27T04:50:06.011Z,62.30
2022-08-27T04:51:04.988Z,64.18
2022-08-27T04:52:04.995Z,64.48
2022-08-27T04:53:05.014Z,63.87
2022-08-27T04:54:04.980Z,64.22
2022-08-27T04:55:04.916Z,62.66
2022-08-27T04:56:04.990Z,63.20
2022-08-27T04:57:04.900Z,59.58
2022-08-27T04:58:05.088Z,63.67
2022-08-27T04:59:04.855Z,63.16
2022-08-27T05:00:04.844Z,63.29
2022-08-27T05:01:04.824Z,61.70
2022-08-27T05:02:05.046Z,60.51
2022-08-27T05:03:04.817Z,62.98
2022-08-27T05:04:04.748Z,63.62
2022-08-27T05:05:04.844Z,62.94
2022-08-27T05:06:04.711Z,62.32
2022-08-27T05:07:04.707Z,63.26
2022-08-27T05:08:04.712Z,62.62
2022-08-27T05:09:04.668Z,62.10
2022-08-27T05:10:04.684Z,59.02
2022-08-27T05:11:04.647Z,65.06
2022-08-27T05:12:04.624Z,64.20
2022-08-27T05:13:04.648Z,61.70
2022-08-27T05:14:04.606Z,62.33
2022-08-27T05:15:04.566Z,62.38
2022-08-27T05:16:04.670Z,63.55
2022-08-27T05:17:04.520Z,63.75
2022-08-27T05:18:04.670Z,62.93
2022-08-27T05:19:04.493Z,64.05
2022-08-27T05:20:04.495Z,63.16
2022-08-27T05:21:04.456Z,63.13
2022-08-27T05:22:04.540Z,62.71
2022-08-27T05:23:04.466Z,61.07
2022-08-27T05:24:04.416Z,63.07
2022-08-27T05:25:04.382Z,63.52
2022-08-27T05:26:04.404Z,63.55
2022-08-27T05:27:04.343Z,65.14
2022-08-27T05:28:04.423Z,63.59
2022-08-27T05:29:04.325Z,60.08
2022-08-27T05:30:04.313Z,63.32
2022-08-27T05:31:04.374Z,64.82
2022-08-27T05:32:04.268Z,64.38
2022-08-27T05:33:04.271Z,62.38
2022-08-27T05:34:10.123Z,63.60
2022-08-27T05:35:05.220Z,61.44
2022-08-27T05:36:04.195Z,65.02
2022-08-27T05:37:04.180Z,64.25
2022-08-27T05:38:04.282Z,62.97
2022-08-27T05:39:04.159Z,65.11
2022-08-27T05:40:04.195Z,62.10
2022-08-27T05:41:04.200Z,62.82
2022-08-27T05:42:04.093Z,64.97
2022-08-27T05:43:04.117Z,64.63
2022-08-27T05:44:18.543Z,65.24
2022-08-27T05:45:06.042Z,63.61
2022-08-27T05:46:04.069Z,64.10
2022-08-27T05:47:04.005Z,65.94
2022-08-27T05:48:04.039Z,64.75
2022-08-27T05:49:03.967Z,61.89
2022-08-27T05:50:03.963Z,65.36
2022-08-27T05:51:03.959Z,63.11
2022-08-27T05:52:03.931Z,63.83
2022-08-27T05:53:03.943Z,66.22
2022-08-27T05:54:08.497Z,65.12
2022-08-27T05:55:05.887Z,65.40
2022-08-27T05:56:03.849Z,64.99
2022-08-27T05:57:04.857Z,63.81
2022-08-27T05:58:03.952Z,64.06
2022-08-27T05:59:03.801Z,64.75
2022-08-27T06:00:03.811Z,63.56
2022-08-27T06:01:07.074Z,63.71
2022-08-27T06:02:05.759Z,64.22
2022-08-27T06:03:03.775Z,64.76
2022-08-27T06:04:03.755Z,62.57
2022-08-27T06:05:03.736Z,64.54
2022-08-27T06:06:03.698Z,64.24
2022-08-27T06:07:03.673Z,66.64
2022-08-27T06:08:03.723Z,66.93
2022-08-27T06:09:03.644Z,64.50
2022-08-27T06:10:03.656Z,65.46
2022-08-27T06:11:03.603Z,64.61
2022-08-27T06:12:03.589Z,63.87
2022-08-27T06:13:03.593Z,63.93
2022-08-27T06:14:03.565Z,63.93
2022-08-27T06:15:03.553Z,65.10
2022-08-27T06:16:03.532Z,66.09
2022-08-27T06:17:03.515Z,65.80
2022-08-27T06:18:03.547Z,63.93
2022-08-27T06:19:03.461Z,65.02
2022-08-27T06:20:03.455Z,66.12
2022-08-27T06:21:03.461Z,63.85
2022-08-27T06:22:09.983Z,62.26
2022-08-27T06:23:04.426Z,64.68
2022-08-27T06:24:03.390Z,63.45
2022-08-27T06:25:03.360Z,64.62
2022-08-27T06:26:03.347Z,66.26
2022-08-27T06:27:03.329Z,64.98
2022-08-27T06:28:03.383Z,64.52
2022-08-27T06:29:03.299Z,63.57
2022-08-27T06:30:03.271Z,64.63
2022-08-27T06:31:03.332Z,63.48
2022-08-27T06:32:03.241Z,63.14
2022-08-27T06:33:03.257Z,63.55
2022-08-27T06:34:07.590Z,62.68
2022-08-27T06:35:04.191Z,63.88
2022-08-27T06:36:03.180Z,62.18
2022-08-27T06:37:03.165Z,65.08
2022-08-27T06:38:03.215Z,63.15
2022-08-27T06:39:03.134Z,64.91
2022-08-27T06:40:03.150Z,65.45
2022-08-27T06:41:03.088Z,65.84
2022-08-27T06:42:03.092Z,65.61
2022-08-27T06:43:03.081Z,63.27
2022-08-27T06:44:03.028Z,65.38
2022-08-27T06:45:03.029Z,65.23
2022-08-27T06:46:03.074Z,63.33
2022-08-27T06:47:02.980Z,63.38
2022-08-27T06:48:03.068Z,65.08
2022-08-27T06:49:02.964Z,62.73
2022-08-27T06:50:02.917Z,64.27
2022-08-27T06:51:02.921Z,63.88
2022-08-27T06:52:02.893Z,64.02
2022-08-27T06:53:02.891Z,64.63
2022-08-27T06:54:02.897Z,63.30
2022-08-27T06:55:02.855Z,64.16
2022-08-27T06:56:02.842Z,66.03
2022-08-27T06:57:02.822Z,62.85
2022-08-27T06:58:02.835Z,64.08
2022-08-27T06:59:02.804Z,65.89
2022-08-27T07:00:02.761Z,64.46
2022-08-27T07:01:02.857Z,64.11
2022-08-27T07:02:02.731Z,64.51
2022-08-27T07:03:02.712Z,65.25
2022-08-27T07:04:02.715Z,64.13
2022-08-27T07:05:02.702Z,63.91
2022-08-27T07:06:02.654Z,63.73
2022-08-27T07:07:02.658Z,63.30
2022-08-27T07:08:02.621Z,62.89
2022-08-27T07:09:02.644Z,64.50
2022-08-27T07:10:02.584Z,64.60
2022-08-27T07:11:02.568Z,63.64
2022-08-27T07:12:02.555Z,63.83
2022-08-27T07:13:02.543Z,65.32
2022-08-27T07:14:02.556Z,63.94
2022-08-27T07:15:02.487Z,62.89
2022-08-27T07:16:02.600Z,64.13
2022-08-27T07:17:02.448Z,60.88
2022-08-27T07:18:02.445Z,65.28
2022-08-27T07:19:04.070Z,65.02
2022-08-27T07:20:02.417Z,64.90
2022-08-27T07:21:02.394Z,62.73
2022-08-27T07:22:02.376Z,62.97
2022-08-27T07:23:02.375Z,63.93
2022-08-27T07:24:02.397Z,66.01
2022-08-27T07:25:02.347Z,64.96
2022-08-27T07:26:02.317Z,62.99
2022-08-27T07:27:02.331Z,65.37
2022-08-27T07:28:02.270Z,66.10
2022-08-27T07:29:03.278Z,64.92
2022-08-27T07:30:02.240Z,65.02
2022-08-27T07:31:02.371Z,66.55
2022-08-27T07:32:02.200Z,64.10
2022-08-27T07:33:02.194Z,66.24
2022-08-27T07:34:02.209Z,63.62
2022-08-27T07:35:02.163Z,63.81
2022-08-27T07:36:02.141Z,63.54
2022-08-27T07:37:02.125Z,65.95
2022-08-27T07:38:02.126Z,64.54
2022-08-27T07:39:02.265Z,65.19
2022-08-27T07:40:02.161Z,65.97
2022-08-27T07:41:02.118Z,64.71
2022-08-27T07:42:02.024Z,64.29
2022-08-27T07:43:02.009Z,65.30
2022-08-27T07:44:02.039Z,64.87
2022-08-27T07:45:02.024Z,65.62
2022-08-27T07:46:02.084Z,64.28
2022-08-27T07:47:01.965Z,65.30
2022-08-27T07:48:01.927Z,64.74
2022-08-27T07:49:01.940Z,64.31
2022-08-27T07:50:01.885Z,65.46
2022-08-27T07:51:01.962Z,65.84
2022-08-27T07:52:01.895Z,65.40
2022-08-27T07:53:01.846Z,65.14
2022-08-27T07:54:01.867Z,66.15
2022-08-27T07:55:01.813Z,64.37
2022-08-27T07:56:01.780Z,63.11
2022-08-27T07:57:02.769Z,64.86
2022-08-27T07:58:01.749Z,64.63
2022-08-27T07:59:01.775Z,63.65
2022-08-27T08:00:01.713Z,66.00
2022-08-27T08:01:01.845Z,66.13
2022-08-27T08:02:01.766Z,65.12
2022-08-27T08:03:01.671Z,65.02
2022-08-27T08:04:01.672Z,64.15
2022-08-27T08:05:01.647Z,64.24
2022-08-27T08:06:01.728Z,63.87
2022-08-27T08:07:01.603Z,65.63
2022-08-27T08:08:01.593Z,65.60
2022-08-27T08:09:01.600Z,63.53
2022-08-27T08:10:01.551Z,65.44
2022-08-27T08:11:01.557Z,65.35
2022-08-27T08:12:01.571Z,63.74
2022-08-27T08:13:01.489Z,63.96
2022-08-27T08:14:01.522Z,66.48
2022-08-27T08:15:01.461Z,63.92
2022-08-27T08:16:01.448Z,64.97
2022-08-27T08:17:01.490Z,63.93
2022-08-27T08:18:01.407Z,63.79
2022-08-27T08:19:02.415Z,63.97
2022-08-27T08:20:24.236Z,65.42
2022-08-27T08:21:03.369Z,64.67
2022-08-27T08:22:05.471Z,64.48
2022-08-27T08:23:02.326Z,65.60
2022-08-27T08:24:01.344Z,62.49
2022-08-27T08:25:01.278Z,64.67
2022-08-27T08:26:01.269Z,65.08
2022-08-27T08:27:06.379Z,64.52
2022-08-27T08:28:03.319Z,64.36
2022-08-27T08:29:01.243Z,64.49
2022-08-27T08:30:01.192Z,62.99
2022-08-27T08:31:01.223Z,64.57
2022-08-27T08:32:01.164Z,63.80
2022-08-27T08:33:01.149Z,64.93
2022-08-27T08:34:01.171Z,64.63
2022-08-27T08:35:01.123Z,65.91
2022-08-27T08:36:01.089Z,66.17
2022-08-27T08:37:01.080Z,66.87
2022-08-27T08:38:01.059Z,62.90
2022-08-27T08:39:01.093Z,64.89
2022-08-27T08:40:01.093Z,64.38
2022-08-27T08:41:01.010Z,64.71
2022-08-27T08:42:00.989Z,63.45
2022-08-27T08:43:00.969Z,64.40
2022-08-27T08:44:05.296Z,62.59
2022-08-27T08:45:01.926Z,63.23
2022-08-27T08:46:00.960Z,63.44
2022-08-27T08:47:00.910Z,64.73
2022-08-27T08:48:00.893Z,65.40
2022-08-27T08:49:00.889Z,65.06
2022-08-27T08:50:00.848Z,65.60
2022-08-27T08:51:00.834Z,64.64
2022-08-27T08:52:00.823Z,65.38
2022-08-27T08:53:00.787Z,65.59
2022-08-27T08:54:00.813Z,65.79
2022-08-27T08:55:00.755Z,66.92
2022-08-27T08:56:00.752Z,65.91
2022-08-27T08:57:00.727Z,66.43
2022-08-27T08:58:00.720Z,65.79
2022-08-27T08:59:00.732Z,66.75
2022-08-27T09:00:00.684Z,64.10
2022-08-27T09:01:00.724Z,65.85
2022-08-27T09:02:00.638Z,64.97
2022-08-27T09:03:00.623Z,65.61
2022-08-27T09:04:00.649Z,65.24
2022-08-27T09:05:00.614Z,62.58
2022-08-27T09:06:00.573Z,65.85
2022-08-27T09:07:00.537Z,65.69
2022-08-27T09:08:21.300Z,64.09
2022-08-27T09:09:02.557Z,62.65
2022-08-27T09:10:00.516Z,63.39
2022-08-27T09:11:00.494Z,65.35
2022-08-27T09:12:00.459Z,65.25
2022-08-27T09:13:00.457Z,64.25
2022-08-27T09:14:00.437Z,64.18
2022-08-27T09:15:00.446Z,63.81
2022-08-27T09:16:00.388Z,64.73
2022-08-27T09:17:00.400Z,65.28
2022-08-27T09:18:00.363Z,64.15
2022-08-27T09:19:00.370Z,64.33
2022-08-27T09:20:00.355Z,64.31
2022-08-27T09:21:00.310Z,63.13
2022-08-27T09:22:00.275Z,63.34
2022-08-27T09:23:01.272Z,64.22
2022-08-27T09:24:00.245Z,63.46
2022-08-27T09:25:00.278Z,64.97
2022-08-27T09:26:00.215Z,62.28
2022-08-27T09:27:00.209Z,64.85
2022-08-27T09:28:00.176Z,63.00
2022-08-27T09:29:00.164Z,64.67
2022-08-27T09:30:00.186Z,64.04
2022-08-27T09:31:00.200Z,64.52
2022-08-27T09:32:00.099Z,63.85
2022-08-27T09:33:00.095Z,63.72
2022-08-27T09:34:00.068Z,64.31
2022-08-27T09:35:00.114Z,65.07
2022-08-27T09:36:00.027Z,63.81
2022-08-27T09:37:00.029Z,62.92
2022-08-27T09:37:59.996Z,63.39
2022-08-27T09:38:59.986Z,63.98
2022-08-27T09:40:00.013Z,63.27
2022-08-27T09:40:59.939Z,65.90
2022-08-27T09:41:59.938Z,64.19
2022-08-27T09:42:59.929Z,64.06
2022-08-27T09:43:59.903Z,64.90
2022-08-27T09:44:59.918Z,64.35
2022-08-27T09:45:59.919Z,64.32
2022-08-27T09:46:59.835Z,63.79
2022-08-27T09:47:59.831Z,62.89
2022-08-27T09:48:59.800Z,60.66
2022-08-27T09:49:59.810Z,63.39
2022-08-27T09:50:59.764Z,64.16
2022-08-27T09:51:59.756Z,63.97
2022-08-27T09:52:59.732Z,63.11
2022-08-27T09:53:59.736Z,64.34
2022-08-27T09:54:59.729Z,63.44
2022-08-27T09:55:59.704Z,63.56
2022-08-27T09:56:59.669Z,64.17
2022-08-27T09:57:59.653Z,63.69
2022-08-27T09:58:59.635Z,63.46
2022-08-27T09:59:59.654Z,63.60
2022-08-27T10:00:59.645Z,64.11
2022-08-27T10:01:59.576Z,64.72
2022-08-27T10:02:59.565Z,62.61
2022-08-27T10:03:59.601Z,63.42
2022-08-27T10:04:59.553Z,63.88
2022-08-27T10:05:59.504Z,63.36
2022-08-27T10:06:59.509Z,64.30
2022-08-27T10:07:59.473Z,62.75
2022-08-27T10:09:01.901Z,62.56
2022-08-27T10:09:59.483Z,63.97
2022-08-27T10:10:59.431Z,64.20
2022-08-27T10:11:59.413Z,63.62
2022-08-27T10:12:59.402Z,64.55
2022-08-27T10:13:59.407Z,61.55
2022-08-27T10:14:59.384Z,63.26
2022-08-27T10:15:59.336Z,62.79
2022-08-27T10:16:59.364Z,63.53
2022-08-27T10:17:59.329Z,64.80
2022-08-27T10:18:59.296Z,61.19
2022-08-27T10:19:59.313Z,65.26
2022-08-27T10:21:03.455Z,61.55
2022-08-27T10:22:01.252Z,63.17
2022-08-27T10:22:59.215Z,64.43
2022-08-27T10:23:59.236Z,63.96
2022-08-27T10:24:59.230Z,65.10
2022-08-27T10:25:59.191Z,64.49
2022-08-27T10:26:59.158Z,64.38
2022-08-27T10:27:59.142Z,61.97
2022-08-27T10:28:59.120Z,62.65
2022-08-27T10:29:59.142Z,62.38
2022-08-27T10:30:59.083Z,62.67
2022-08-27T10:31:59.120Z,62.90
2022-08-27T10:32:59.065Z,63.81
2022-08-27T10:33:59.058Z,62.63
2022-08-27T10:34:59.049Z,63.60
2022-08-27T10:35:59.000Z,64.23
2022-08-27T10:36:59.012Z,63.29
2022-08-27T10:37:58.976Z,64.67
2022-08-27T10:38:58.965Z,64.51
2022-08-27T10:39:59.006Z,63.27
2022-08-27T10:40:58.930Z,63.92
2022-08-27T10:41:58.896Z,64.23
2022-08-27T10:42:58.886Z,65.10
2022-08-27T10:43:58.862Z,65.08
2022-08-27T10:44:58.895Z,64.76
2022-08-27T10:45:58.911Z,64.61
2022-08-27T10:46:58.812Z,63.44
2022-08-27T10:47:58.832Z,61.10
2022-08-27T10:48:58.790Z,64.08
2022-08-27T10:49:58.983Z,64.33
2022-08-27T10:50:58.749Z,65.65
2022-08-27T10:51:58.746Z,63.42
2022-08-27T10:52:58.714Z,62.20
2022-08-27T10:53:58.709Z,64.17
2022-08-27T10:54:58.730Z,61.93
2022-08-27T10:55:58.665Z,63.99
2022-08-27T10:57:22.824Z,64.08
2022-08-27T10:58:01.280Z,62.15
2022-08-27T10:58:59.624Z,65.65
2022-08-27T10:59:58.798Z,64.41
2022-08-27T11:00:58.622Z,62.54
2022-08-27T11:01:58.607Z,62.63
2022-08-27T11:02:58.538Z,62.44
2022-08-27T11:03:58.545Z,63.56
2022-08-27T11:04:58.554Z,63.59
2022-08-27T11:05:58.501Z,63.31
2022-08-27T11:06:58.492Z,64.45
2022-08-27T11:07:58.460Z,63.32
2022-08-27T11:08:58.459Z,65.20
2022-08-27T11:09:58.467Z,65.21
2022-08-27T11:11:04.585Z,64.52
2022-08-27T11:12:15.457Z,63.39
2022-08-27T11:13:00.387Z,60.93
2022-08-27T11:13:58.776Z,62.52
2022-08-27T11:14:58.370Z,65.31
2022-08-27T11:15:58.368Z,64.55
2022-08-27T11:16:58.413Z,65.22
2022-08-27T11:17:58.292Z,63.56
2022-08-27T11:18:58.280Z,64.61
2022-08-27T11:19:58.287Z,61.78
2022-08-27T11:20:58.250Z,60.74
2022-08-27T11:21:58.241Z,64.92
2022-08-27T11:22:58.219Z,63.47
2022-08-27T11:23:58.206Z,62.17
2022-08-27T11:24:58.212Z,61.84
2022-08-27T11:26:02.458Z,63.48
2022-08-27T11:26:58.145Z,62.52
2022-08-27T11:27:58.126Z,62.73
2022-08-27T11:28:58.136Z,60.08
2022-08-27T11:30:00.266Z,64.94
2022-08-27T11:30:58.089Z,67.89
2022-08-27T11:31:58.110Z,61.98
2022-08-27T11:32:58.060Z,63.12
2022-08-27T11:33:58.032Z,64.63
2022-08-27T11:34:58.043Z,60.32
2022-08-27T11:35:58.027Z,64.21
2022-08-27T11:36:57.992Z,62.69
2022-08-27T11:37:57.958Z,64.03
2022-08-27T11:38:57.953Z,61.31
2022-08-27T11:39:57.983Z,63.04
2022-08-27T11:40:57.917Z,61.99
2022-08-27T11:41:57.887Z,62.87
2022-08-27T11:42:57.874Z,64.45
2022-08-27T11:43:57.871Z,62.82
2022-08-27T11:44:57.890Z,62.74
2022-08-27T11:45:57.841Z,63.41
2022-08-27T11:46:57.869Z,63.75
2022-08-27T11:47:57.802Z,63.58
2022-08-27T11:48:57.776Z,64.18
2022-08-27T11:49:57.787Z,64.28
2022-08-27T11:50:57.734Z,63.17
2022-08-27T11:51:58.757Z,61.12
2022-08-27T11:52:57.758Z,62.52
2022-08-27T11:53:57.713Z,63.06
2022-08-27T11:54:57.706Z,64.45
2022-08-27T11:55:57.664Z,61.94
2022-08-27T11:56:57.636Z,62.13
2022-08-27T11:57:57.632Z,64.23
2022-08-27T11:58:57.611Z,62.08
2022-08-27T11:59:57.629Z,62.01
2022-08-27T12:01:01.021Z,63.60
2022-08-27T12:01:59.559Z,60.65
2022-08-27T12:02:57.595Z,60.61
2022-08-27T12:03:57.538Z,61.88
2022-08-27T12:04:57.534Z,62.89
2022-08-27T12:05:57.528Z,62.74
2022-08-27T12:06:57.488Z,61.90
2022-08-27T12:07:57.462Z,62.40
2022-08-27T12:08:57.460Z,63.32
2022-08-27T12:09:57.458Z,63.38
2022-08-27T12:10:57.414Z,63.08
2022-08-27T12:11:57.413Z,63.73
2022-08-27T12:12:57.409Z,63.10
2022-08-27T12:13:57.367Z,62.91
2022-08-27T12:14:57.435Z,63.53
2022-08-27T12:15:57.363Z,62.97
2022-08-27T12:16:57.323Z,61.25
2022-08-27T12:17:57.306Z,62.52
2022-08-27T12:18:57.295Z,64.30
2022-08-27T12:19:57.301Z,63.21
2022-08-27T12:20:57.265Z,64.08
2022-08-27T12:21:57.223Z,63.75
2022-08-27T12:22:57.231Z,61.47
2022-08-27T12:23:57.192Z,61.40
2022-08-27T12:24:57.242Z,64.18
2022-08-27T12:25:57.202Z,63.11
2022-08-27T12:26:57.147Z,61.32
2022-08-27T12:27:57.130Z,63.67
2022-08-27T12:28:57.191Z,63.59
2022-08-27T12:29:57.150Z,62.60
2022-08-27T12:30:57.078Z,63.67
2022-08-27T12:31:57.077Z,62.89
2022-08-27T12:32:57.100Z,61.89
2022-08-27T12:33:57.046Z,63.85
2022-08-27T12:34:59.664Z,63.05
2022-08-27T12:35:58.093Z,62.35
2022-08-27T12:36:56.968Z,63.25
2022-08-27T12:37:57.876Z,60.91
2022-08-27T12:38:56.937Z,62.22
2022-08-27T12:39:56.964Z,62.70
2022-08-27T12:40:56.906Z,61.46
2022-08-27T12:41:56.899Z,61.75
2022-08-27T12:42:56.875Z,60.98
2022-08-27T12:43:56.856Z,63.31
2022-08-27T12:44:56.864Z,61.97
2022-08-27T12:45:56.835Z,62.98
2022-08-27T12:46:56.867Z,60.31
2022-08-27T12:47:56.792Z,63.13
2022-08-27T12:48:56.784Z,62.80
2022-08-27T12:49:56.800Z,60.97
2022-08-27T12:50:56.745Z,63.81
2022-08-27T12:51:56.729Z,62.77